Time;durP1;ratioP1;P1;durP2;ratioP2;P2;SDS_P1;SDS_P2;PMS_P1;PMS_P2;Temp;Humidity;BMP_temperature;BMP_pressure;BME280_temperature;BME280_humidity;BME280_pressure;Samples;Min_cycle;Max_cycle;Signal;HPM_P1;HPM_P2
2022/04/26 03:36:39;;;;;;;;;;;7.10;99.90;;;;;;5115983;28;19930;-59
2022/04/26 03:39:05;;;;;;;;;;;7.20;99.90;;;;;;5115633;28;20645;-60
2022/04/26 03:41:31;;;;;;;;;;;7.10;99.90;;;;;;5115949;28;19928;-60
2022/04/26 03:43:58;;;;;;;;;;;7.20;99.90;;;;;;5114177;28;19924;-60
2022/04/26 03:46:23;;;;;;;;;;;7.20;99.90;;;;;;5115464;28;19924;-60
2022/04/26 03:48:49;;;;;;;;;;;7.20;99.90;;;;;;5097103;28;19965;-59
2022/04/26 03:51:15;;;;;;;;;;;7.30;99.90;;;;;;5115094;28;19927;-60
2022/04/26 03:53:42;;;;;;;;;;;7.30;99.90;;;;;;5115096;28;20002;-60
2022/04/26 03:56:08;;;;;;;;;;;7.30;99.90;;;;;;5097461;28;20369;-60
2022/04/26 03:58:33;;;;;;;;;;;7.30;99.90;;;;;;5096608;28;19923;-60
2022/04/26 04:00:59;;;;;;;;;;;7.40;99.90;;;;;;5115033;28;19943;-60
2022/04/26 04:03:25;;;;;;;;;;;7.40;99.90;;;;;;5097124;28;20026;-60
2022/04/26 04:05:51;;;;;;;;;;;7.50;99.90;;;;;;5097105;28;20378;-60
2022/04/26 04:08:17;;;;;;;;;;;7.40;99.90;;;;;;5114313;28;19976;-59
2022/04/26 04:10:42;;;;;;;;;;;7.40;99.90;;;;;;5114539;28;20008;-60
2022/04/26 04:13:08;;;;;;;;;;;7.40;99.90;;;;;;5115069;28;19923;-60
2022/04/26 04:15:34;;;;;;;;;;;7.30;99.90;;;;;;5095677;28;19978;-60
2022/04/26 04:17:59;;;;;;;;;;;7.30;99.90;;;;;;5115509;28;19931;-60
2022/04/26 04:20:25;;;;;;;;;;;7.50;99.90;;;;;;5115536;28;19924;-60
2022/04/26 04:22:53;;;;;;;;;;;7.30;99.90;;;;;;5095704;28;19923;-60
2022/04/26 04:25:20;;;;;;;;;;;7.30;99.90;;;;;;5107039;28;19969;-60
2022/04/26 04:27:45;;;;;;;;;;;7.30;99.90;;;;;;5114906;28;20022;-60
2022/04/26 04:30:11;;;;;;;;;;;7.30;99.90;;;;;;5114163;28;19931;-59
2022/04/26 04:32:37;;;;;;;;;;;7.30;99.90;;;;;;5097076;28;19924;-60
2022/04/26 04:35:03;;;;;;;;;;;7.30;99.90;;;;;;5114332;28;19963;-59
2022/04/26 04:37:29;;;;;;;;;;;7.20;99.90;;;;;;5114786;28;20006;-59
2022/04/26 04:39:55;;;;;;;;;;;7.20;99.90;;;;;;5114861;28;19978;-60
2022/04/26 04:42:21;;;;;;;;;;;7.10;99.90;;;;;;5095635;28;19987;-60
2022/04/26 04:44:47;;;;;;;;;;;7.10;99.90;;;;;;5114554;28;19983;-60
2022/04/26 04:47:12;;;;;;;;;;;7.20;99.90;;;;;;5114595;28;19928;-59
2022/04/26 04:49:38;;;;;;;;;;;7.20;99.90;;;;;;5113964;28;19924;-60
2022/04/26 04:52:04;;;;;;;;;;;7.20;99.90;;;;;;5095226;28;20384;-60
2022/04/26 04:54:29;;;;;;;;;;;7.30;99.90;;;;;;5114724;28;20281;-60
2022/04/26 04:56:55;;;;;;;;;;;7.40;99.90;;;;;;5095535;28;19934;-60
2022/04/26 04:59:21;;;;;;;;;;;7.40;99.90;;;;;;5114283;28;19924;-60
2022/04/26 05:01:46;;;;;;;;;;;7.40;99.90;;;;;;5114163;28;19923;-59
2022/04/26 05:04:12;;;;;;;;;;;7.40;99.90;;;;;;5113261;28;19932;-60
2022/04/26 05:06:38;;;;;;;;;;;7.40;99.90;;;;;;5095321;28;19924;-60
2022/04/26 05:09:04;;;;;;;;;;;7.50;99.90;;;;;;5113292;28;19945;-60
2022/04/26 05:11:29;;;;;;;;;;;7.40;99.90;;;;;;5113232;28;19962;-60
2022/04/26 05:13:55;;;;;;;;;;;7.40;99.90;;;;;;5114088;28;19972;-60
2022/04/26 05:16:21;;;;;;;;;;;7.50;99.90;;;;;;5114095;28;20262;-60
2022/04/26 05:18:46;;;;;;;;;;;7.50;99.90;;;;;;5113216;28;19923;-60
2022/04/26 05:21:13;;;;;;;;;;;7.50;99.90;;;;;;5113878;28;19931;-60
2022/04/26 05:26:23;;;;;;;;;;;7.60;99.90;;;;;;5113242;28;19970;-60
2022/04/26 05:28:49;;;;;;;;;;;7.70;99.90;;;;;;5113932;28;19920;-60
2022/04/26 05:31:14;;;;;;;;;;;7.70;99.90;;;;;;5114161;28;19930;-60
2022/04/26 05:33:40;;;;;;;;;;;7.70;99.90;;;;;;5113369;28;19924;-60
2022/04/26 05:36:06;;;;;;;;;;;7.80;99.90;;;;;;5113261;28;19920;-60
2022/04/26 05:38:33;;;;;;;;;;;7.80;99.90;;;;;;5113279;28;20364;-60
2022/04/26 05:40:59;;;;;;;;;;;7.90;99.90;;;;;;5113976;28;20340;-60
2022/04/26 05:43:25;;;;;;;;;;;8.00;99.90;;;;;;5095564;28;19927;-60
2022/04/26 05:45:50;;;;;;;;;;;8.10;99.90;;;;;;5112665;28;19931;-60
2022/04/26 05:48:16;;;;;;;;;;;8.20;99.90;;;;;;5113579;28;19973;-60
2022/04/26 05:50:41;;;;;;;;;;;8.20;99.90;;;;;;5094767;28;19931;-60
2022/04/26 05:53:07;;;;;;;;;;;8.30;99.90;;;;;;5112487;28;19969;-60
2022/04/26 05:55:34;;;;;;;;;;;8.30;99.90;;;;;;5113941;28;20018;-60
2022/04/26 05:58:01;;;;;;;;;;;8.50;99.90;;;;;;5113480;28;19962;-60
2022/04/26 06:00:28;;;;;;;;;;;8.60;99.90;;;;;;5094503;28;20011;-60
2022/04/26 06:02:53;;;;;;;;;;;8.70;99.90;;;;;;5094760;28;19931;-60
2022/04/26 06:05:19;;;;;;;;;;;8.90;99.90;;;;;;5113745;28;19924;-60
2022/04/26 06:07:45;;;;;;;;;;;9.10;99.90;;;;;;5112656;28;20022;-60
2022/04/26 06:10:12;;;;;;;;;;;9.20;99.90;;;;;;5113692;28;19924;-60
2022/04/26 06:12:39;;;;;;;;;;;9.50;99.90;;;;;;5112711;28;19930;-60
2022/04/26 06:15:06;;;;;;;;;;;9.50;99.90;;;;;;5112674;28;20386;-60
2022/04/26 06:17:32;;;;;;;;;;;9.60;99.90;;;;;;5113431;28;19924;-60
2022/04/26 06:19:58;;;;;;;;;;;9.70;99.90;;;;;;5112999;28;19962;-60
2022/04/26 06:22:24;;;;;;;;;;;9.80;99.90;;;;;;5112603;28;19959;-60
2022/04/26 06:24:51;;;;;;;;;;;9.70;99.90;;;;;;5113267;28;19931;-60
2022/04/26 06:27:17;;;;;;;;;;;9.80;99.90;;;;;;5113090;28;20425;-60
2022/04/26 06:29:44;;;;;;;;;;;9.80;99.90;;;;;;5112478;28;20018;-60
2022/04/26 06:32:09;;;;;;;;;;;9.80;99.90;;;;;;5113628;28;19981;-60
2022/04/26 06:34:35;;;;;;;;;;;9.90;99.90;;;;;;5116658;28;19927;-60
2022/04/26 06:37:02;;;;;;;;;;;9.70;99.90;;;;;;5115927;28;20350;-60
2022/04/26 06:39:28;;;;;;;;;;;9.60;99.90;;;;;;5116843;28;19924;-60
2022/04/26 06:41:54;;;;;;;;;;;9.60;99.90;;;;;;5115800;28;20441;-60
2022/04/26 06:44:20;;;;;;;;;;;9.70;99.90;;;;;;5116493;28;20045;-60
2022/04/26 06:46:46;;;;;;;;;;;9.90;99.90;;;;;;5116779;28;20305;-60
2022/04/26 06:49:11;;;;;;;;;;;10.10;99.90;;;;;;5115850;28;19931;-60
2022/04/26 06:51:43;;;;;;;;;;;10.40;99.90;;;;;;5116715;28;19924;-60
2022/04/26 06:54:08;;;;;;;;;;;10.70;99.90;;;;;;5098562;28;20010;-60
2022/04/26 06:56:34;;;;;;;;;;;10.90;99.90;;;;;;5115692;28;20003;-60
2022/04/26 06:59:00;;;;;;;;;;;11.00;99.90;;;;;;5117036;28;19924;-60
2022/04/26 07:01:25;;;;;;;;;;;11.10;99.90;;;;;;5098777;28;19928;-60
2022/04/26 07:03:51;;;;;;;;;;;10.90;99.90;;;;;;5115009;28;20290;-60
2022/04/26 07:06:17;;;;;;;;;;;10.70;99.90;;;;;;5116670;28;20373;-60
2022/04/26 07:08:43;;;;;;;;;;;10.40;99.90;;;;;;5116669;28;19962;-60
2022/04/26 07:11:08;;;;;;;;;;;10.30;99.90;;;;;;5115598;28;19977;-60
2022/04/26 07:13:34;;;;;;;;;;;10.30;99.90;;;;;;5097555;28;19947;-60
2022/04/26 07:16:00;;;;;;;;;;;10.40;99.90;;;;;;5116550;28;19947;-60
2022/04/26 07:18:26;;;;;;;;;;;10.30;99.90;;;;;;5115435;28;19928;-60
2022/04/26 07:20:52;;;;;;;;;;;10.40;99.90;;;;;;5116487;28;19924;-60
2022/04/26 07:23:17;;;;;;;;;;;10.50;99.90;;;;;;5115981;28;19924;-60
2022/04/26 07:25:43;;;;;;;;;;;10.80;99.90;;;;;;5115256;27;20358;-60
2022/04/26 07:28:09;;;;;;;;;;;10.90;99.90;;;;;;5116241;28;19923;-60
2022/04/26 07:30:35;;;;;;;;;;;11.10;99.90;;;;;;5115876;28;20270;-60
2022/04/26 07:35:46;;;;;;;;;;;11.20;99.90;;;;;;5095224;28;20301;-60
2022/04/26 07:38:11;;;;;;;;;;;11.60;99.90;;;;;;5122553;27;19924;-61
2022/04/26 07:40:37;;;;;;;;;;;11.90;99.90;;;;;;5115251;28;19923;-60
2022/04/26 07:43:04;;;;;;;;;;;12.00;99.90;;;;;;5087745;28;19924;-60
2022/04/26 07:45:30;;;;;;;;;;;12.10;99.90;;;;;;5114704;28;20309;-60
2022/04/26 07:47:56;;;;;;;;;;;12.20;99.90;;;;;;5115380;28;20010;-60
2022/04/26 07:50:21;;;;;;;;;;;11.90;99.90;;;;;;5115732;28;20015;-60
2022/04/26 07:52:47;;;;;;;;;;;11.90;99.90;;;;;;5115277;28;20366;-61
2022/04/26 07:55:13;;;;;;;;;;;12.10;99.90;;;;;;5097338;28;19973;-61
2022/04/26 07:57:39;;;;;;;;;;;12.30;99.90;;;;;;5115334;28;19927;-60
2022/04/26 08:00:05;;;;;;;;;;;12.20;99.90;;;;;;5095995;28;19932;-60
2022/04/26 08:02:38;;;;;;;;;;;12.20;99.90;;;;;;5096063;28;19924;-61
2022/04/26 08:05:03;;;;;;;;;;;12.40;99.90;;;;;;5114912;28;19924;-60
2022/04/26 08:07:29;;;;;;;;;;;12.80;99.90;;;;;;5113529;28;19924;-61
2022/04/26 08:09:56;;;;;;;;;;;12.70;99.90;;;;;;5114246;28;20217;-60
2022/04/26 08:12:22;;;;;;;;;;;12.40;99.90;;;;;;5114327;28;19931;-60
2022/04/26 08:14:47;;;;;;;;;;;11.90;99.90;;;;;;5113189;28;19924;-60
2022/04/26 08:17:15;;;;;;;;;;;11.80;99.90;;;;;;5115291;28;19924;-61
2022/04/26 08:19:42;;;;;;;;;;;11.60;99.90;;;;;;5097085;28;19931;-61
2022/04/26 08:22:08;;;;;;;;;;;11.50;99.90;;;;;;5109395;28;19931;-60
2022/04/26 08:27:25;;;;;;;;;;;11.80;99.90;;;;;;5114606;28;19928;-60
2022/04/26 08:29:51;;;;;;;;;;;11.90;99.90;;;;;;5115189;28;19923;-61
2022/04/26 08:32:17;;;;;;;;;;;11.80;99.90;;;;;;5114629;28;20006;-60
2022/04/26 08:34:42;;;;;;;;;;;11.90;99.90;;;;;;5114344;28;19966;-60
2022/04/26 08:37:09;;;;;;;;;;;11.90;99.90;;;;;;5114996;28;19931;-60
2022/04/26 08:39:35;;;;;;;;;;;12.10;99.90;;;;;;5096460;28;20385;-60
2022/04/26 08:42:02;;;;;;;;;;;12.30;99.90;;;;;;5113392;28;19923;-60
2022/04/26 08:44:28;;;;;;;;;;;12.50;99.90;;;;;;5114901;28;20357;-61
2022/04/26 08:52:24;;;;;;;;;;;12.70;99.90;;;;;;5113608;28;20036;-60
2022/04/26 08:54:50;;;;;;;;;;;12.80;99.90;;;;;;5113757;28;19927;-61
2022/04/26 08:57:16;;;;;;;;;;;12.90;99.90;;;;;;5113487;28;19931;-61
2022/04/26 08:59:45;;;;;;;;;;;13.00;99.90;;;;;;5095302;28;19931;-60
2022/04/26 09:02:13;;;;;;;;;;;13.10;99.90;;;;;;5114414;28;20068;-60
2022/04/26 09:04:39;;;;;;;;;;;13.30;99.90;;;;;;5113440;28;19931;-60
2022/04/26 09:07:08;;;;;;;;;;;13.30;99.90;;;;;;5114297;28;19928;-60
2022/04/26 09:09:37;;;;;;;;;;;13.30;99.90;;;;;;5112441;28;19928;-60
2022/04/26 09:12:09;;;;;;;;;;;13.20;99.90;;;;;;5111213;28;19924;-61
2022/04/26 09:14:36;;;;;;;;;;;13.20;99.90;;;;;;5113848;28;20004;-61
2022/04/26 09:17:07;;;;;;;;;;;13.30;99.90;;;;;;5113150;28;19924;-61
2022/04/26 09:19:44;;;;;;;;;;;13.50;99.90;;;;;;5114057;28;20408;-61
2022/04/26 09:22:14;;;;;;;;;;;13.70;99.90;;;;;;5114136;28;19923;-61
2022/04/26 09:24:54;;;;;;;;;;;13.90;99.90;;;;;;5108388;28;19935;-61
2022/04/26 09:27:20;;;;;;;;;;;13.90;99.90;;;;;;5095402;28;20400;-61
2022/04/26 09:29:47;;;;;;;;;;;13.90;99.90;;;;;;5113306;28;19946;-61
2022/04/26 09:32:13;;;;;;;;;;;14.00;99.90;;;;;;5113078;28;20284;-61
2022/04/26 09:34:39;;;;;;;;;;;14.20;99.90;;;;;;5113711;28;19924;-61
2022/04/26 09:37:05;;;;;;;;;;;14.40;99.90;;;;;;5114015;28;19923;-61
2022/04/26 09:39:30;;;;;;;;;;;14.50;99.70;;;;;;5112477;28;20294;-61
2022/04/26 09:41:56;;;;;;;;;;;14.10;98.10;;;;;;5113895;28;19924;-61
2022/04/26 09:44:31;;;;;;;;;;;13.50;98.70;;;;;;5109159;28;19923;-61
2022/04/26 09:46:57;;;;;;;;;;;12.90;99.90;;;;;;5093206;28;19924;-61
2022/04/26 09:49:24;;;;;;;;;;;12.70;99.90;;;;;;5113189;28;20339;-60
2022/04/26 09:51:54;;;;;;;;;;;12.80;99.90;;;;;;5093918;28;19924;-60
2022/04/26 09:54:20;;;;;;;;;;;12.80;99.90;;;;;;5113030;28;19946;-60
2022/04/26 09:56:46;;;;;;;;;;;12.90;99.90;;;;;;5113081;28;19927;-61
2022/04/26 09:59:15;;;;;;;;;;;12.90;99.90;;;;;;5112485;28;19923;-61
2022/04/26 10:01:42;;;;;;;;;;;12.90;99.90;;;;;;5112707;28;20019;-60
2022/04/26 10:04:08;;;;;;;;;;;13.00;99.90;;;;;;5113044;28;19924;-61
2022/04/26 10:06:34;;;;;;;;;;;13.20;99.90;;;;;;5112392;28;19979;-60
2022/04/26 10:09:00;;;;;;;;;;;13.40;99.90;;;;;;5116668;28;19979;-60
2022/04/26 10:11:26;;;;;;;;;;;13.40;99.90;;;;;;5117158;28;20396;-61
2022/04/26 10:13:52;;;;;;;;;;;13.50;99.90;;;;;;5116629;28;19973;-60
2022/04/26 10:16:19;;;;;;;;;;;13.90;99.90;;;;;;5117224;28;19974;-61
2022/04/26 10:18:47;;;;;;;;;;;14.00;98.60;;;;;;5098997;28;20370;-61
2022/04/26 10:21:32;;;;;;;;;;;14.10;98.00;;;;;;5116581;28;19980;-61
2022/04/26 10:24:01;;;;;;;;;;;14.30;98.90;;;;;;5115834;28;20301;-60
2022/04/26 10:26:27;;;;;;;;;;;14.80;98.90;;;;;;5098419;28;19928;-61
2022/04/26 10:28:55;;;;;;;;;;;15.00;96.30;;;;;;5116561;28;19924;-61
2022/04/26 10:31:39;;;;;;;;;;;15.10;97.00;;;;;;5117113;28;19963;-61
2022/04/26 10:34:16;;;;;;;;;;;15.50;94.60;;;;;;5117084;28;19935;-60
2022/04/26 10:36:43;;;;;;;;;;;15.90;93.30;;;;;;5098719;28;20014;-61
2022/04/26 10:39:09;;;;;;;;;;;16.10;93.00;;;;;;5117022;28;19924;-61
2022/04/26 10:41:35;;;;;;;;;;;16.50;91.00;;;;;;5098261;28;19923;-61
2022/04/26 10:44:22;;;;;;;;;;;16.60;82.70;;;;;;5117137;28;19924;-60
2022/04/26 10:47:00;;;;;;;;;;;16.70;89.80;;;;;;5116446;28;20010;-61
2022/04/26 10:49:32;;;;;;;;;;;16.90;86.00;;;;;;5116345;28;19935;-61
2022/04/26 10:52:18;;;;;;;;;;;16.90;79.60;;;;;;5117057;28;19924;-61
2022/04/26 10:54:45;;;;;;;;;;;16.70;83.50;;;;;;5116240;28;19923;-61
2022/04/26 10:57:11;;;;;;;;;;;16.90;83.70;;;;;;5116398;28;19970;-61
2022/04/26 10:59:43;;;;;;;;;;;17.30;82.30;;;;;;5116993;28;19923;-61
2022/04/26 11:02:10;;;;;;;;;;;18.30;73.60;;;;;;5097516;28;20400;-61
2022/04/26 11:04:36;;;;;;;;;;;18.30;74.70;;;;;;5116381;28;19927;-61
2022/04/26 11:07:02;;;;;;;;;;;;;;;;;;5117041;28;19931;-61
2022/04/26 11:09:31;;;;;;;;;;;19.20;67.50;;;;;;5115613;28;19923;-62
2022/04/26 11:11:57;;;;;;;;;;;19.20;69.50;;;;;;5108668;28;20396;-61
2022/04/26 11:14:24;;;;;;;;;;;18.90;66.30;;;;;;5116755;28;20373;-61
2022/04/26 11:16:54;;;;;;;;;;;18.10;66.10;;;;;;5115702;28;19924;-61
2022/04/26 11:19:25;;;;;;;;;;;17.50;67.20;;;;;;5115836;28;20285;-61
2022/04/26 11:21:50;;;;;;;;;;;17.50;69.90;;;;;;5113334;28;19946;-61
2022/04/26 11:29:54;;;;;;;;;;;18.80;64.70;;;;;;5115743;28;19931;-61
2022/04/26 11:32:28;;;;;;;;;;;18.90;61.90;;;;;;5096980;28;19920;-61
2022/04/26 11:34:53;;;;;;;;;;;18.70;62.80;;;;;;5115605;28;20390;-60
2022/04/26 11:37:19;;;;;;;;;;;18.20;65.70;;;;;;5096184;28;19998;-60
2022/04/26 11:39:44;;;;;;;;;;;18.50;65.10;;;;;;5115850;28;20012;-60
2022/04/26 11:42:11;;;;;;;;;;;18.80;65.90;;;;;;5116246;28;19924;-61
2022/04/26 11:44:37;;;;;;;;;;;19.20;60.70;;;;;;5104669;28;20401;-61
2022/04/26 11:47:03;;;;;;;;;;;19.70;59.50;;;;;;5099018;28;19930;-61
2022/04/26 11:49:38;;;;;;;;;;;20.30;58.20;;;;;;5115617;28;19924;-61
2022/04/26 11:52:04;;;;;;;;;;;20.10;56.20;;;;;;5095895;28;19923;-60
2022/04/26 11:54:33;;;;;;;;;;;19.60;59.80;;;;;;5115491;28;19930;-61
2022/04/26 11:56:59;;;;;;;;;;;19.70;58.90;;;;;;5115424;28;19924;-61
2022/04/26 11:59:25;;;;;;;;;;;20.10;57.20;;;;;;5096496;28;20016;-61
2022/04/26 12:01:52;;;;;;;;;;;20.30;59.80;;;;;;5095499;28;19980;-61
2022/04/26 12:04:18;;;;;;;;;;;20.90;57.20;;;;;;5112068;28;19980;-61
2022/04/26 12:06:44;;;;;;;;;;;21.20;57.00;;;;;;5114699;28;20332;-61
2022/04/26 12:09:16;;;;;;;;;;;21.50;56.80;;;;;;5114448;28;19976;-61
2022/04/26 12:11:44;;;;;;;;;;;21.90;54.80;;;;;;5115129;28;19924;-61
2022/04/26 12:14:19;;;;;;;;;;;22.40;52.90;;;;;;5114041;28;20286;-61
2022/04/26 12:16:47;;;;;;;;;;;22.20;52.90;;;;;;5115526;28;19931;-61
2022/04/26 12:19:12;;;;;;;;;;;22.50;52.50;;;;;;5114541;28;20377;-61
2022/04/26 12:21:46;;;;;;;;;;;22.60;52.50;;;;;;5113016;28;19963;-61
2022/04/26 12:24:14;;;;;;;;;;;23.00;51.80;;;;;;5099604;28;20370;-61
2022/04/26 12:26:56;;;;;;;;;;;23.00;51.60;;;;;;5093967;28;20286;-61
2022/04/26 12:29:22;;;;;;;;;;;23.10;50.00;;;;;;5114539;28;19935;-61
2022/04/26 12:31:48;;;;;;;;;;;23.10;51.60;;;;;;5113837;28;20408;-61
2022/04/26 12:34:21;;;;;;;;;;;23.10;50.90;;;;;;5114295;28;19924;-61
2022/04/26 12:36:52;;;;;;;;;;;23.20;50.20;;;;;;5114272;28;20018;-61
2022/04/26 12:39:18;;;;;;;;;;;22.70;50.00;;;;;;5107030;28;19924;-61
2022/04/26 12:41:45;;;;;;;;;;;21.60;50.90;;;;;;5110749;28;20374;-61
2022/04/26 12:44:11;;;;;;;;;;;21.10;54.20;;;;;;5114666;28;19989;-61
2022/04/26 12:46:44;;;;;;;;;;;21.30;52.90;;;;;;5115021;28;19924;-61
2022/04/26 12:52:11;;;;;;;;;;;21.60;55.00;;;;;;5093332;28;19924;-61
2022/04/26 12:54:37;;;;;;;;;;;22.30;54.20;;;;;;5114206;28;19947;-61
2022/04/26 12:57:04;;;;;;;;;;;22.10;53.10;;;;;;5096258;28;20289;-61
2022/04/26 12:59:35;;;;;;;;;;;22.00;52.70;;;;;;5095655;28;19931;-61
2022/04/26 13:02:00;;;;;;;;;;;22.00;53.30;;;;;;5095494;28;20374;-61
2022/04/26 13:04:26;;;;;;;;;;;21.40;53.00;;;;;;5096029;28;19924;-61
2022/04/26 13:06:53;;;;;;;;;;;20.90;55.10;;;;;;5114036;28;19931;-61
2022/04/26 13:09:18;;;;;;;;;;;20.90;55.30;;;;;;5095257;28;19972;-62
2022/04/26 13:11:45;;;;;;;;;;;21.30;54.40;;;;;;5103657;28;20018;-61
2022/04/26 13:14:11;;;;;;;;;;;21.40;55.00;;;;;;5093270;28;20422;-61
2022/04/26 13:16:36;;;;;;;;;;;21.50;54.80;;;;;;5105859;28;20010;-62
2022/04/26 13:19:02;;;;;;;;;;;21.40;54.40;;;;;;5114136;28;19984;-61
2022/04/26 13:21:28;;;;;;;;;;;21.30;55.20;;;;;;5095696;28;19931;-61
2022/04/26 13:23:57;;;;;;;;;;;20.50;54.40;;;;;;5113011;28;19966;-61
2022/04/26 13:26:23;;;;;;;;;;;19.90;56.90;;;;;;5094019;28;19924;-61
2022/04/26 13:28:48;;;;;;;;;;;19.90;57.50;;;;;;5093369;28;19924;-61
2022/04/26 13:31:14;;;;;;;;;;;20.10;58.90;;;;;;5074831;28;20309;-61
2022/04/26 13:33:42;;;;;;;;;;;20.30;57.30;;;;;;5101295;28;19924;-62
2022/04/26 13:36:08;;;;;;;;;;;19.90;55.40;;;;;;5078546;28;20398;-62
2022/04/26 13:38:33;;;;;;;;;;;19.90;58.80;;;;;;5113403;28;19963;-62
2022/04/26 13:41:00;;;;;;;;;;;19.60;55.70;;;;;;5095380;28;19923;-61
2022/04/26 13:43:25;;;;;;;;;;;19.30;58.40;;;;;;5113413;28;19989;-62
2022/04/26 13:45:51;;;;;;;;;;;19.10;58.50;;;;;;5113247;28;20389;-62
2022/04/26 13:48:17;;;;;;;;;;;18.80;58.90;;;;;;5113794;28;19981;-62
2022/04/26 13:50:43;;;;;;;;;;;19.10;60.70;;;;;;5111911;28;20270;-61
2022/04/26 13:53:09;;;;;;;;;;;18.80;60.30;;;;;;5113905;28;19927;-62
2022/04/26 13:55:34;;;;;;;;;;;18.20;60.40;;;;;;5095483;28;19923;-61
2022/04/26 13:58:03;;;;;;;;;;;18.40;62.30;;;;;;5112867;28;19924;-61
2022/04/26 14:00:30;;;;;;;;;;;18.90;62.10;;;;;;5113144;28;19924;-62
2022/04/26 14:02:56;;;;;;;;;;;19.30;59.70;;;;;;5095189;28;19927;-62
2022/04/26 14:05:23;;;;;;;;;;;19.40;59.60;;;;;;5094316;28;19923;-62
2022/04/26 14:07:49;;;;;;;;;;;19.70;60.70;;;;;;5113857;28;20290;-62
2022/04/26 14:10:15;;;;;;;;;;;20.00;57.70;;;;;;5113016;28;19930;-62
2022/04/26 14:12:41;;;;;;;;;;;20.20;57.60;;;;;;5112271;28;19924;-62
2022/04/26 14:23:20;;;;;;;;;;;20.30;57.10;;;;;;5113481;28;19935;-62
2022/04/26 14:25:45;;;;;;;;;;;20.80;57.60;;;;;;5113390;28;19929;-62
2022/04/26 14:28:11;;;;;;;;;;;20.30;55.80;;;;;;5112174;28;19924;-62
2022/04/26 14:30:37;;;;;;;;;;;19.10;58.60;;;;;;5113408;28;20069;-62
2022/04/26 14:33:03;;;;;;;;;;;18.10;62.00;;;;;;5112372;28;19923;-62
2022/04/26 14:35:31;;;;;;;;;;;18.00;63.10;;;;;;5112278;28;20020;-62
2022/04/26 14:37:58;;;;;;;;;;;17.90;63.00;;;;;;5113307;28;19926;-62
2022/04/26 14:40:24;;;;;;;;;;;17.10;64.30;;;;;;5076876;28;19928;-61
2022/04/26 14:42:50;;;;;;;;;;;16.60;67.60;;;;;;5092434;28;20022;-61
2022/04/26 14:45:16;;;;;;;;;;;16.30;67.60;;;;;;5107204;28;19934;-61
2022/04/26 14:47:42;;;;;;;;;;;16.10;67.70;;;;;;5112734;28;20022;-61
2022/04/26 14:50:09;;;;;;;;;;;16.00;70.80;;;;;;5094536;28;19946;-61
2022/04/26 14:52:36;;;;;;;;;;;16.00;72.20;;;;;;5094261;28;19924;-61
2022/04/26 14:55:08;;;;;;;;;;;16.70;71.60;;;;;;5116102;28;19950;-61
2022/04/26 14:57:35;;;;;;;;;;;17.70;67.20;;;;;;5116886;28;19924;-61
2022/04/26 15:00:02;;;;;;;;;;;18.60;65.30;;;;;;5117102;28;19924;-61
2022/04/26 15:02:36;;;;;;;;;;;19.80;62.10;;;;;;5097215;28;19923;-61
2022/04/26 15:05:02;;;;;;;;;;;20.80;57.90;;;;;;5116425;28;19946;-62
2022/04/26 15:09:42;;;;;;;;;;;20.90;56.70;;;;;;5116942;28;20381;-61
2022/04/26 15:10:13;;;;;;;;;;;20.50;56.50;;;;;;5115505;28;19924;-61
2022/04/26 15:18:08;;;;;;;;;;;19.60;58.10;;;;;;5116834;28;19924;-62
2022/04/26 15:20:34;;;;;;;;;;;18.80;59.60;;;;;;5115790;28;19931;-61
2022/04/26 15:23:01;;;;;;;;;;;17.70;61.30;;;;;;5106431;28;20290;-61
2022/04/26 15:25:26;;;;;;;;;;;17.20;62.80;;;;;;5116613;28;19946;-62
2022/04/26 15:27:52;;;;;;;;;;;17.30;62.80;;;;;;5116084;28;20354;-61
2022/04/26 15:30:17;;;;;;;;;;;17.10;63.70;;;;;;5115230;28;19984;-61
2022/04/26 15:32:43;;;;;;;;;;;16.70;64.70;;;;;;5097934;28;19931;-61
2022/04/26 15:35:10;;;;;;;;;;;16.10;67.90;;;;;;5097665;28;19924;-61
2022/04/26 15:37:35;;;;;;;;;;;15.70;70.50;;;;;;5115326;28;19928;-61
2022/04/26 15:40:01;;;;;;;;;;;15.30;72.90;;;;;;5116305;28;19946;-61
2022/04/26 15:42:30;;;;;;;;;;;14.90;75.00;;;;;;5097418;28;19930;-62
2022/04/26 15:44:56;;;;;;;;;;;14.70;75.80;;;;;;5115390;28;20384;-61
2022/04/26 15:47:21;;;;;;;;;;;14.60;78.60;;;;;;5115634;28;19927;-61
2022/04/26 15:49:47;;;;;;;;;;;14.60;79.50;;;;;;5097481;28;19923;-61
2022/04/26 15:52:13;;;;;;;;;;;14.60;81.60;;;;;;5115251;28;20401;-61
2022/04/26 15:54:41;;;;;;;;;;;14.60;80.70;;;;;;5115717;28;19931;-61
2022/04/26 15:57:07;;;;;;;;;;;14.60;82.50;;;;;;5097252;28;20385;-61
2022/04/26 15:59:33;;;;;;;;;;;14.70;83.50;;;;;;5115201;28;20027;-61
2022/04/26 16:01:58;;;;;;;;;;;15.60;77.20;;;;;;5115823;28;20015;-61
2022/04/26 16:04:24;;;;;;;;;;;16.70;72.10;;;;;;5114236;28;19923;-61
2022/04/26 16:06:50;;;;;;;;;;;17.50;69.50;;;;;;5097671;28;20018;-61
2022/04/26 16:20:29;;;;;;;;;;;16.50;69.50;;;;;;5114185;28;19931;-61
2022/04/26 16:22:56;;;;;;;;;;;17.10;65.30;;;;;;5114654;28;19931;-61
2022/04/26 16:25:22;;;;;;;;;;;17.20;64.60;;;;;;5115244;28;19931;-61
2022/04/26 16:27:49;;;;;;;;;;;17.40;65.80;;;;;;5114646;28;19924;-61
2022/04/26 16:30:15;;;;;;;;;;;17.90;64.10;;;;;;5112381;28;19924;-61
2022/04/26 16:32:41;;;;;;;;;;;18.70;63.10;;;;;;5114166;28;19931;-61
2022/04/26 16:35:07;;;;;;;;;;;19.40;61.30;;;;;;5115024;28;19927;-61
2022/04/26 16:37:33;;;;;;;;;;;19.60;59.90;;;;;;5115239;28;19930;-61
2022/04/26 16:39:59;;;;;;;;;;;20.00;59.00;;;;;;5089016;28;19977;-62
2022/04/26 16:42:24;;;;;;;;;;;19.70;57.10;;;;;;5096075;28;19984;-62
2022/04/26 16:44:50;;;;;;;;;;;19.00;58.10;;;;;;5115043;28;20010;-61
2022/04/26 16:47:16;;;;;;;;;;;18.20;60.80;;;;;;5113959;28;20331;-61
2022/04/26 16:49:41;;;;;;;;;;;17.30;62.90;;;;;;5114201;28;19926;-61
2022/04/26 16:52:07;;;;;;;;;;;16.20;66.00;;;;;;5095698;28;19931;-62
2022/04/26 16:54:33;;;;;;;;;;;15.40;69.70;;;;;;5113262;28;19923;-61
2022/04/26 16:56:59;;;;;;;;;;;15.00;72.50;;;;;;5113250;28;20007;-61
2022/04/26 16:59:24;;;;;;;;;;;14.70;78.00;;;;;;5113663;28;19967;-61
2022/04/26 17:01:51;;;;;;;;;;;14.70;78.90;;;;;;5094166;28;20443;-61
2022/04/26 17:04:17;;;;;;;;;;;14.80;78.40;;;;;;5112970;28;19924;-61
2022/04/26 17:06:43;;;;;;;;;;;15.50;79.40;;;;;;5113718;28;19976;-61
2022/04/26 17:09:09;;;;;;;;;;;15.90;77.10;;;;;;5095106;28;19923;-61
2022/04/26 17:11:42;;;;;;;;;;;16.40;74.80;;;;;;5113002;28;20351;-61
2022/04/26 17:14:09;;;;;;;;;;;16.70;74.00;;;;;;5111710;28;19992;-61
2022/04/26 17:16:34;;;;;;;;;;;16.80;70.70;;;;;;5111290;28;19927;-61
2022/04/26 17:19:00;;;;;;;;;;;16.60;72.60;;;;;;5113233;28;19923;-61
2022/04/26 17:21:26;;;;;;;;;;;16.60;68.40;;;;;;5096025;28;19934;-61
2022/04/26 17:23:51;;;;;;;;;;;16.60;64.70;;;;;;5087121;28;19992;-61
2022/04/26 17:26:17;;;;;;;;;;;16.50;66.10;;;;;;5095443;28;19923;-61
2022/04/26 17:28:43;;;;;;;;;;;16.10;65.20;;;;;;5095183;28;19924;-61
2022/04/26 17:31:09;;;;;;;;;;;15.50;67.20;;;;;;5113987;28;19924;-61
2022/04/26 17:33:35;;;;;;;;;;;15.00;68.10;;;;;;5113453;28;20378;-61
2022/04/26 17:36:01;;;;;;;;;;;14.50;71.30;;;;;;5113339;28;19975;-61
2022/04/26 17:38:27;;;;;;;;;;;14.50;73.90;;;;;;5095731;28;19923;-61
2022/04/26 17:40:53;;;;;;;;;;;14.70;73.60;;;;;;5113471;28;19931;-61
2022/04/26 17:43:18;;;;;;;;;;;15.00;73.60;;;;;;5113101;28;19924;-61
2022/04/26 17:45:46;;;;;;;;;;;15.20;71.90;;;;;;5113901;28;19931;-61
2022/04/26 17:48:13;;;;;;;;;;;15.20;69.10;;;;;;5113711;28;19977;-60
2022/04/26 17:50:40;;;;;;;;;;;15.10;69.70;;;;;;5112536;28;20042;-60
2022/04/26 17:58:35;;;;;;;;;;;14.30;89.20;;;;;;5112907;28;19975;-60
2022/04/26 18:01:00;;;;;;;;;;;13.40;79.50;;;;;;5095765;28;19943;-60
2022/04/26 18:03:26;;;;;;;;;;;13.20;84.60;;;;;;5109790;28;20266;-60
2022/04/26 18:05:52;;;;;;;;;;;13.00;89.70;;;;;;5111889;28;19947;-61
2022/04/26 18:08:19;;;;;;;;;;;12.80;91.10;;;;;;5112473;28;19931;-60
2022/04/26 18:10:45;;;;;;;;;;;12.50;91.40;;;;;;5113154;28;20023;-60
2022/04/26 18:13:11;;;;;;;;;;;12.30;93.80;;;;;;5111659;28;19931;-60
2022/04/26 18:15:38;;;;;;;;;;;12.00;94.70;;;;;;5112489;28;20004;-60
2022/04/26 18:18:04;;;;;;;;;;;11.80;96.40;;;;;;5111333;28;19931;-60
2022/04/26 18:20:29;;;;;;;;;;;11.50;97.70;;;;;;5112833;28;19928;-60
2022/04/26 18:22:55;;;;;;;;;;;11.30;99.10;;;;;;5111967;28;19924;-60
2022/04/26 18:26:10;;;;;;;;;;;11.20;99.90;;;;;;5110476;28;20354;-60
2022/04/26 18:28:06;;;;;;;;;;;11.10;99.90;;;;;;5110625;28;19928;-60
2022/04/26 18:30:32;;;;;;;;;;;11.10;99.90;;;;;;5117282;28;20400;-60
2022/04/26 18:32:57;;;;;;;;;;;11.00;99.90;;;;;;5115675;28;20360;-60
2022/04/26 18:35:23;;;;;;;;;;;11.00;99.90;;;;;;5116808;28;19924;-60
2022/04/26 18:37:49;;;;;;;;;;;11.00;99.90;;;;;;5098719;28;19924;-60
2022/04/26 18:40:17;;;;;;;;;;;10.80;99.90;;;;;;5097645;28;19924;-60
2022/04/26 18:42:42;;;;;;;;;;;10.70;99.90;;;;;;5116304;28;19985;-60
2022/04/26 18:45:08;;;;;;;;;;;10.60;99.90;;;;;;5117270;28;20320;-60
2022/04/26 18:47:34;;;;;;;;;;;10.40;99.90;;;;;;5115997;28;20281;-60